Accueil
METAR-TAF:

METAR-TAF

Aéroports :

Armstrong, Ontario, Canada

latitude: 50-17-38N, longitude: 088-54-36W, altitude: 323 m

Observation

Le bulletin a été fait il y a 48 minutes, à 15:00 UTC
Vent 12 kt de ouest/nord-ouest, variant entre ouest et nord
Température 23°C
Humidité 53%
Pression 1004 hPa
Visibilité: 14.5 km
Ciel clair

METAR: CYYW 021500Z AUTO 30012KT 280V360 9SM CLR 23/13 A2965 RMK SLP035 DENSITY ALT 2500FT

Heure: 11:48 (15:48 UTC)


TAF: absent

Observations et prévisions météorologiques de plus de 4000 aéroports (messages METAR et TAF).

Les stations disponibles sont représentées par des disques jaunes et rouges sur la carte.

Passer la souris dessus pour voir le nom de la station.

Cliquer dessus pour voir les observations et prévisions météorologiques.

Pour changer de carte: cliquez sur les boutons verts avec une croix noire pour zoomer, sur le bouton vert avec un tiret pour effectuer un zoom arrière, ou sur les flèches vertes pour les cartes adjacentes.


METAR-TAF: